createdAt,value
2018-07-21T00:01:04.577Z,75.30
2018-07-21T00:03:32.777Z,75.40
2018-07-21T00:06:00.958Z,75.60
2018-07-21T00:08:29.129Z,76.70
2018-07-21T00:10:57.353Z,77.10
2018-07-21T00:13:25.519Z,77.20
2018-07-21T00:15:53.710Z,77.70
2018-07-21T00:18:21.890Z,78.20
2018-07-21T00:20:50.074Z,78.70
2018-07-21T00:23:18.254Z,78.90
2018-07-21T00:25:46.449Z,78.90
2018-07-21T00:28:14.639Z,79.40
2018-07-21T00:30:42.822Z,79.10
2018-07-21T00:33:11.007Z,79.20
2018-07-21T00:35:39.198Z,79.10
2018-07-21T00:38:07.421Z,78.30
2018-07-21T00:40:35.576Z,78.10
2018-07-21T00:43:03.758Z,78.80
2018-07-21T00:45:31.943Z,79.80
2018-07-21T00:48:00.249Z,80.90
2018-07-21T00:50:28.422Z,81.50
2018-07-21T00:52:56.610Z,82.30
2018-07-21T00:55:24.793Z,82.90
2018-07-21T00:57:52.982Z,82.20
2018-07-21T01:00:22.214Z,82.40
2018-07-21T01:02:50.384Z,82.20
2018-07-21T01:05:18.574Z,82.60
2018-07-21T01:07:46.751Z,83.40
2018-07-21T01:10:15.862Z,83.80
2018-07-21T01:12:44.046Z,83.50
2018-07-21T01:15:12.214Z,83.40
2018-07-21T01:17:40.318Z,84.00
2018-07-21T01:20:08.623Z,83.60
2018-07-21T01:22:36.906Z,84.10
2018-07-21T01:25:06.425Z,84.20
2018-07-21T01:27:34.594Z,83.90
2018-07-21T01:30:02.794Z,83.60
2018-07-21T01:32:30.966Z,83.50
2018-07-21T01:34:59.163Z,83.50
2018-07-21T01:37:27.344Z,83.50
2018-07-21T01:39:55.533Z,83.40
2018-07-21T01:42:23.726Z,83.30
2018-07-21T01:44:51.910Z,83.40
2018-07-21T01:47:20.117Z,83.50
2018-07-21T01:49:48.291Z,83.80
2018-07-21T01:52:16.470Z,83.70
2018-07-21T01:54:44.654Z,83.80
2018-07-21T01:57:12.833Z,83.80
2018-07-21T01:59:41.022Z,84.10
2018-07-21T02:02:09.206Z,85.00
2018-07-21T02:04:37.422Z,85.40
2018-07-21T02:07:05.817Z,84.60
2018-07-21T02:09:33.968Z,84.80
2018-07-21T02:12:02.161Z,85.00
2018-07-21T02:14:30.342Z,86.00
2018-07-21T02:16:58.554Z,86.40
2018-07-21T02:19:26.701Z,86.10
2018-07-21T02:21:54.806Z,86.10
2018-07-21T02:24:22.977Z,86.10
2018-07-21T02:26:51.079Z,86.10
2018-07-21T02:29:19.241Z,86.40
2018-07-21T02:31:47.338Z,86.90
2018-07-21T02:34:15.522Z,87.10
2018-07-21T02:36:43.612Z,87.30
2018-07-21T02:39:12.539Z,87.70
2018-07-21T02:41:41.043Z,88.40
2018-07-21T02:44:09.209Z,89.20
2018-07-21T02:46:37.382Z,89.90
2018-07-21T02:49:05.591Z,90.10
2018-07-21T02:51:33.751Z,90.00
2018-07-21T02:54:01.835Z,90.30
2018-07-21T02:56:29.920Z,90.60
2018-07-21T02:58:59.006Z,90.90
2018-07-21T03:01:27.119Z,91.10
2018-07-21T03:03:55.313Z,90.90
2018-07-21T03:06:23.418Z,90.90
2018-07-21T03:08:51.570Z,91.10
2018-07-21T03:11:19.667Z,91.10
2018-07-21T03:13:48.045Z,91.30
2018-07-21T03:16:16.137Z,91.10
2018-07-21T03:18:44.330Z,90.90
2018-07-21T03:21:12.530Z,91.00
2018-07-21T03:23:40.732Z,91.10
2018-07-21T03:26:08.894Z,91.20
2018-07-21T03:28:37.074Z,90.80
2018-07-21T03:31:05.271Z,91.10
2018-07-21T03:33:33.453Z,90.70
2018-07-21T03:36:01.641Z,90.80
2018-07-21T03:38:29.813Z,90.80
2018-07-21T03:40:57.910Z,90.90
2018-07-21T03:43:26.105Z,91.00
2018-07-21T03:45:54.317Z,90.70
2018-07-21T03:48:22.472Z,90.60
2018-07-21T03:50:50.657Z,90.80
2018-07-21T03:53:18.845Z,91.10
2018-07-21T03:55:47.257Z,91.30
2018-07-21T03:58:15.583Z,92.00
2018-07-21T04:00:43.940Z,92.50
2018-07-21T04:03:12.101Z,93.10
2018-07-21T04:05:40.305Z,93.30
2018-07-21T04:08:08.471Z,93.40
2018-07-21T04:10:36.659Z,93.50
2018-07-21T04:13:05.062Z,93.70
2018-07-21T04:15:33.229Z,93.90
2018-07-21T04:18:01.330Z,93.90
2018-07-21T04:20:30.438Z,94.00
2018-07-21T04:22:58.622Z,94.10
2018-07-21T04:25:26.802Z,94.10
2018-07-21T04:27:55.005Z,94.10
2018-07-21T04:30:23.177Z,94.10
2018-07-21T04:32:51.405Z,94.10
2018-07-21T04:35:19.549Z,94.00
2018-07-21T04:37:47.638Z,94.10
2018-07-21T04:40:16.746Z,94.10
2018-07-21T04:42:45.061Z,93.90
2018-07-21T04:45:13.218Z,93.90
2018-07-21T04:47:41.422Z,93.60
2018-07-21T04:50:09.596Z,93.40
2018-07-21T04:52:37.788Z,93.20
2018-07-21T04:55:05.968Z,93.20
2018-07-21T04:57:34.161Z,93.00
2018-07-21T05:00:02.341Z,92.90
2018-07-21T05:02:30.553Z,93.00
2018-07-21T05:04:58.726Z,92.80
2018-07-21T05:07:26.984Z,93.20
2018-07-21T05:09:55.094Z,93.00
2018-07-21T05:12:23.277Z,93.40
2018-07-21T05:14:51.461Z,93.30
2018-07-21T05:17:19.669Z,93.10
2018-07-21T05:19:47.829Z,92.80
2018-07-21T05:22:15.952Z,93.10
2018-07-21T05:24:44.220Z,93.20
2018-07-21T05:27:12.527Z,92.80
2018-07-21T05:29:40.707Z,92.40
2018-07-21T05:32:09.157Z,92.60
2018-07-21T05:34:37.262Z,92.10
2018-07-21T05:37:05.469Z,92.10
2018-07-21T05:39:33.644Z,92.20
2018-07-21T05:42:01.858Z,92.30
2018-07-21T05:44:30.015Z,92.20
2018-07-21T05:46:58.206Z,92.20
2018-07-21T05:49:26.384Z,92.40
2018-07-21T05:51:54.586Z,92.40
2018-07-21T05:54:22.674Z,91.90
2018-07-21T05:56:50.848Z,91.90
2018-07-21T05:59:19.045Z,92.00
2018-07-21T06:01:47.213Z,92.40
2018-07-21T06:04:15.422Z,92.60
2018-07-21T06:06:43.598Z,93.20
2018-07-21T06:09:12.009Z,92.80
2018-07-21T06:11:40.705Z,91.60
2018-07-21T06:14:08.998Z,91.20
2018-07-21T06:16:37.165Z,91.00
2018-07-21T06:19:05.420Z,90.90
2018-07-21T06:21:33.561Z,90.50
2018-07-21T06:24:01.615Z,90.20
2018-07-21T06:26:30.062Z,90.30
2018-07-21T06:28:58.185Z,90.10
2018-07-21T06:31:26.272Z,90.10
2018-07-21T06:33:54.355Z,89.60
2018-07-21T06:36:22.774Z,89.60
2018-07-21T06:38:50.944Z,89.50
2018-07-21T06:41:19.124Z,89.00
2018-07-21T06:43:47.352Z,89.10
2018-07-21T06:46:15.498Z,88.80
2018-07-21T06:48:43.691Z,88.20
2018-07-21T06:51:11.861Z,87.80
2018-07-21T06:56:07.929Z,88.30
2018-07-21T06:58:36.017Z,87.60
2018-07-21T07:01:04.102Z,87.40
2018-07-21T07:03:32.191Z,87.10
2018-07-21T07:06:00.279Z,86.90
2018-07-21T07:08:28.342Z,87.40
2018-07-21T07:10:56.435Z,88.60
2018-07-21T07:13:24.528Z,89.00
2018-07-21T07:15:52.613Z,90.10
2018-07-21T07:18:20.818Z,89.50
2018-07-21T07:20:48.923Z,90.10
2018-07-21T07:23:17.101Z,89.80
2018-07-21T07:25:45.251Z,90.10
2018-07-21T07:28:13.348Z,90.30
2018-07-21T07:30:41.426Z,90.00
2018-07-21T07:33:09.518Z,90.10
2018-07-21T07:35:37.594Z,90.10
2018-07-21T07:38:05.690Z,90.40
2018-07-21T07:40:33.871Z,90.60
2018-07-21T07:43:02.062Z,90.40
2018-07-21T07:45:30.233Z,90.80
2018-07-21T07:47:58.321Z,91.10
2018-07-21T07:50:27.439Z,91.20
2018-07-21T07:52:55.627Z,90.90
2018-07-21T07:55:23.700Z,91.10
2018-07-21T07:57:51.781Z,91.00
2018-07-21T08:00:20.926Z,91.10
2018-07-21T08:02:48.996Z,91.00
2018-07-21T08:05:17.197Z,91.00
2018-07-21T08:07:45.347Z,91.10
2018-07-21T08:10:13.458Z,91.10
2018-07-21T08:12:41.650Z,91.20
2018-07-21T08:15:09.838Z,90.80
2018-07-21T08:17:38.006Z,91.10
2018-07-21T08:20:06.237Z,91.10
2018-07-21T08:22:34.386Z,91.40
2018-07-21T08:25:02.591Z,92.30
2018-07-21T08:27:30.754Z,91.80
2018-07-21T08:29:58.933Z,92.30
2018-07-21T08:32:27.013Z,92.70
2018-07-21T08:34:55.102Z,93.30
2018-07-21T08:37:23.190Z,94.30
2018-07-21T08:39:51.281Z,94.10
2018-07-21T08:42:19.449Z,94.20
2018-07-21T08:44:47.537Z,94.00
2018-07-21T08:47:15.629Z,94.10
2018-07-21T08:49:43.867Z,94.20
2018-07-21T08:52:12.026Z,94.40
2018-07-21T08:54:40.186Z,94.70
2018-07-21T08:57:08.285Z,94.50
2018-07-21T08:59:36.481Z,94.60
2018-07-21T09:02:04.773Z,94.90
2018-07-21T09:04:32.950Z,95.10
2018-07-21T09:07:01.145Z,95.40
2018-07-21T09:09:29.333Z,95.20
2018-07-21T09:11:57.491Z,95.60
2018-07-21T09:14:25.587Z,95.70
2018-07-21T09:16:53.766Z,96.00
2018-07-21T09:19:21.970Z,95.90
2018-07-21T09:21:50.202Z,95.80
2018-07-21T09:24:18.397Z,96.10
2018-07-21T09:26:46.537Z,96.40
2018-07-21T09:29:14.721Z,96.50
2018-07-21T09:31:42.901Z,96.40
2018-07-21T09:34:11.181Z,96.50
2018-07-21T09:36:39.282Z,96.50
2018-07-21T09:39:09.017Z,96.30
2018-07-21T09:41:37.186Z,96.30
2018-07-21T09:44:05.401Z,96.20
2018-07-21T09:46:33.548Z,96.80
2018-07-21T09:49:01.766Z,97.00
2018-07-21T09:51:30.087Z,96.90
2018-07-21T09:53:58.241Z,97.40
2018-07-21T09:56:26.530Z,97.40
2018-07-21T09:58:54.742Z,98.00
2018-07-21T10:01:22.878Z,98.20
2018-07-21T10:03:51.077Z,97.80
2018-07-21T10:06:19.261Z,97.80
2018-07-21T10:08:47.458Z,98.10
2018-07-21T10:11:15.629Z,98.20
2018-07-21T10:13:43.826Z,98.40
2018-07-21T10:16:12.005Z,98.90
2018-07-21T10:18:40.193Z,98.70
2018-07-21T10:21:08.390Z,99.10
2018-07-21T10:23:36.561Z,99.00
2018-07-21T10:26:10.245Z,99.00
2018-07-21T10:28:43.694Z,99.30
2018-07-21T10:31:11.882Z,99.00
2018-07-21T10:33:40.146Z,99.20
2018-07-21T10:36:08.266Z,99.30
2018-07-21T10:38:36.566Z,99.40
2018-07-21T10:41:04.746Z,99.60
2018-07-21T10:43:32.911Z,99.60
2018-07-21T10:46:01.097Z,99.40
2018-07-21T10:48:29.304Z,99.30
2018-07-21T10:50:57.486Z,99.20
2018-07-21T10:53:25.670Z,99.20
2018-07-21T10:55:53.890Z,99.60
2018-07-21T10:58:22.041Z,99.30
2018-07-21T11:00:50.249Z,99.10
2018-07-21T11:03:18.478Z,99.10
2018-07-21T11:05:46.614Z,99.00
2018-07-21T11:08:14.883Z,98.90
2018-07-21T11:10:42.992Z,98.60
2018-07-21T11:13:11.193Z,98.80
2018-07-21T11:15:39.359Z,98.80
2018-07-21T11:18:07.535Z,98.90
2018-07-21T11:20:35.725Z,98.90
2018-07-21T11:23:03.898Z,98.80
2018-07-21T11:25:32.221Z,99.10
2018-07-21T11:28:00.384Z,98.80
2018-07-21T11:30:28.589Z,98.80
2018-07-21T11:32:56.776Z,99.10
2018-07-21T11:35:25.109Z,99.90
2018-07-21T11:37:53.146Z,99.90
2018-07-21T11:40:21.317Z,99.90
2018-07-21T11:42:49.514Z,99.90
2018-07-21T11:45:18.115Z,99.90
2018-07-21T11:47:46.300Z,99.90
2018-07-21T11:50:14.417Z,99.90
2018-07-21T11:52:42.572Z,99.90
2018-07-21T11:55:10.760Z,99.90
2018-07-21T11:57:38.937Z,99.90
2018-07-21T12:00:07.261Z,99.90
2018-07-21T12:02:35.376Z,99.90
2018-07-21T12:05:03.508Z,99.90
2018-07-21T12:07:31.687Z,99.90
2018-07-21T12:09:59.873Z,99.90
2018-07-21T12:12:28.062Z,99.90
2018-07-21T12:14:56.242Z,99.90
2018-07-21T12:17:24.549Z,99.90
2018-07-21T12:19:52.722Z,99.90
2018-07-21T12:22:20.817Z,99.90
2018-07-21T12:24:49.006Z,99.90
2018-07-21T12:27:17.202Z,99.90
2018-07-21T12:29:45.378Z,99.90
2018-07-21T12:32:13.648Z,99.90
2018-07-21T12:34:41.733Z,99.90
2018-07-21T12:37:09.941Z,99.90
2018-07-21T12:39:38.110Z,99.90
2018-07-21T12:42:06.330Z,99.90
2018-07-21T12:44:34.488Z,99.90
2018-07-21T12:47:02.683Z,99.90
2018-07-21T12:49:30.854Z,99.90
2018-07-21T12:51:59.061Z,99.90
2018-07-21T12:54:27.230Z,99.90
2018-07-21T12:56:55.431Z,99.90
2018-07-21T12:59:23.609Z,99.90
2018-07-21T13:01:51.806Z,99.90
2018-07-21T13:04:19.976Z,99.90
2018-07-21T13:06:48.082Z,99.90
2018-07-21T13:09:16.245Z,99.90
2018-07-21T13:11:44.446Z,99.90
2018-07-21T13:14:12.620Z,99.90
2018-07-21T13:16:40.814Z,99.90
2018-07-21T13:19:08.998Z,99.30
2018-07-21T13:21:37.206Z,99.90
2018-07-21T13:24:05.393Z,99.90
2018-07-21T13:26:33.589Z,99.80
2018-07-21T13:29:01.778Z,99.20
2018-07-21T13:31:29.976Z,99.80
2018-07-21T13:33:58.113Z,99.90
2018-07-21T13:36:26.295Z,99.20
2018-07-21T13:38:54.499Z,99.90
2018-07-21T13:41:22.729Z,99.40
2018-07-21T13:43:50.865Z,99.90
2018-07-21T13:46:19.059Z,99.80
2018-07-21T13:48:47.250Z,99.90
2018-07-21T13:51:15.353Z,99.90
2018-07-21T13:53:43.518Z,98.70
2018-07-21T13:56:11.686Z,98.10
2018-07-21T13:58:39.887Z,98.10
2018-07-21T14:01:08.398Z,98.10
2018-07-21T14:03:36.571Z,98.20
2018-07-21T14:06:04.933Z,98.80
2018-07-21T14:08:33.046Z,99.30
2018-07-21T14:11:01.159Z,98.80
2018-07-21T14:13:29.325Z,99.50
2018-07-21T14:15:57.571Z,99.80
2018-07-21T14:18:25.710Z,99.40
2018-07-21T14:20:53.862Z,98.00
2018-07-21T14:23:22.050Z,97.40
2018-07-21T14:25:50.229Z,98.10
2018-07-21T14:28:18.434Z,98.40
2018-07-21T14:30:46.597Z,98.70
2018-07-21T14:33:14.698Z,98.40
2018-07-21T14:35:42.926Z,98.50
2018-07-21T14:38:11.078Z,98.50
2018-07-21T14:40:39.290Z,98.50
2018-07-21T14:43:07.443Z,99.30
2018-07-21T14:45:35.526Z,98.90
2018-07-21T14:48:03.609Z,98.70
2018-07-21T14:50:31.790Z,98.70
2018-07-21T14:52:59.918Z,97.80
2018-07-21T14:55:28.062Z,98.00
2018-07-21T14:57:56.158Z,98.10
2018-07-21T15:00:25.254Z,98.70
2018-07-21T15:02:53.349Z,99.00
2018-07-21T15:05:21.774Z,99.50
2018-07-21T15:07:49.945Z,99.00
2018-07-21T15:10:19.034Z,98.90
2018-07-21T15:12:47.214Z,98.80
2018-07-21T15:15:15.408Z,99.00
2018-07-21T15:17:43.655Z,99.50
2018-07-21T15:20:11.798Z,99.00
2018-07-21T15:22:39.982Z,98.80
2018-07-21T15:25:08.169Z,98.50
2018-07-21T15:27:36.425Z,98.70
2018-07-21T15:30:04.598Z,98.20
2018-07-21T15:32:32.738Z,98.50
2018-07-21T15:35:00.910Z,98.90
2018-07-21T15:37:29.107Z,97.60
2018-07-21T15:39:57.293Z,97.50
2018-07-21T15:42:25.481Z,98.60
2018-07-21T15:44:53.673Z,99.00
2018-07-21T15:47:21.833Z,99.10
2018-07-21T15:49:50.042Z,99.70
2018-07-21T15:52:18.389Z,99.70
2018-07-21T15:54:46.551Z,98.00
2018-07-21T15:57:14.722Z,97.50
2018-07-21T15:59:42.885Z,97.50
2018-07-21T16:02:11.214Z,98.70
2018-07-21T16:04:39.361Z,97.00
2018-07-21T16:07:07.542Z,96.40
2018-07-21T16:09:35.778Z,96.80
2018-07-21T16:12:03.922Z,97.80
2018-07-21T16:14:32.119Z,98.30
2018-07-21T16:17:00.293Z,97.90
2018-07-21T16:19:28.490Z,98.30
2018-07-21T16:21:56.665Z,98.10
2018-07-21T16:24:24.854Z,97.40
2018-07-21T16:26:53.038Z,97.60
2018-07-21T16:29:21.238Z,97.40
2018-07-21T16:31:49.404Z,97.30
2018-07-21T16:34:17.598Z,98.10
2018-07-21T16:36:45.713Z,98.80
2018-07-21T16:39:13.902Z,97.90
2018-07-21T16:41:42.050Z,98.30
2018-07-21T16:44:10.258Z,99.30
2018-07-21T16:46:38.342Z,99.40
2018-07-21T16:49:06.558Z,98.90
2018-07-21T16:51:34.817Z,99.60
2018-07-21T16:54:03.006Z,98.60
2018-07-21T16:56:31.186Z,97.90
2018-07-21T16:58:59.370Z,97.80
2018-07-21T17:01:27.554Z,97.70
2018-07-21T17:03:55.751Z,98.00
2018-07-21T17:06:23.934Z,98.00
2018-07-21T17:08:52.115Z,97.50
2018-07-21T17:11:20.285Z,98.10
2018-07-21T17:13:48.598Z,98.30
2018-07-21T17:16:16.774Z,99.00
2018-07-21T17:18:44.973Z,99.70
2018-07-21T17:21:13.237Z,98.10
2018-07-21T17:23:41.336Z,98.00
2018-07-21T17:26:09.514Z,98.70
2018-07-21T17:28:37.717Z,98.90
2018-07-21T17:31:06.030Z,98.20
2018-07-21T17:33:34.214Z,98.10
2018-07-21T17:36:02.370Z,98.20
2018-07-21T17:38:30.681Z,99.00
2018-07-21T17:40:58.965Z,98.60
2018-07-21T17:43:27.159Z,98.70
2018-07-21T17:45:55.325Z,98.90
2018-07-21T17:48:23.513Z,99.10
2018-07-21T17:50:51.930Z,99.20
2018-07-21T17:53:20.118Z,99.00
2018-07-21T17:55:48.281Z,99.00
2018-07-21T17:58:16.463Z,99.00
2018-07-21T18:00:44.650Z,99.50
2018-07-21T18:03:12.785Z,99.50
2018-07-21T18:05:40.934Z,99.60
2018-07-21T18:08:09.140Z,99.80
2018-07-21T18:10:37.529Z,99.10
2018-07-21T18:13:05.618Z,99.50
2018-07-21T18:15:33.821Z,99.40
2018-07-21T18:18:01.954Z,99.20
2018-07-21T18:20:30.141Z,98.70
2018-07-21T18:22:58.318Z,98.50
2018-07-21T18:25:26.466Z,98.60
2018-07-21T18:27:54.595Z,98.70
2018-07-21T18:30:22.782Z,99.00
2018-07-21T18:32:50.961Z,99.10
2018-07-21T18:35:19.070Z,98.80
2018-07-21T18:37:47.269Z,98.90
2018-07-21T18:40:15.438Z,98.30
2018-07-21T18:42:43.606Z,98.70
2018-07-21T18:45:11.716Z,98.10
2018-07-21T18:47:39.878Z,98.40
2018-07-21T18:52:36.763Z,98.40
2018-07-21T18:55:04.861Z,98.50
2018-07-21T18:57:33.025Z,98.00
2018-07-21T19:00:01.177Z,98.30
2018-07-21T19:02:29.327Z,98.80
2018-07-21T19:04:57.502Z,98.90
2018-07-21T19:07:25.689Z,98.90
2018-07-21T19:09:53.873Z,98.60
2018-07-21T19:12:27.566Z,98.80
2018-07-21T19:14:55.675Z,99.00
2018-07-21T19:17:23.903Z,99.00
2018-07-21T19:19:57.490Z,99.20
2018-07-21T19:22:25.742Z,99.30
2018-07-21T19:24:53.861Z,99.50
2018-07-21T19:27:27.638Z,99.50
2018-07-21T19:29:55.758Z,99.70
2018-07-21T19:32:29.322Z,99.90
2018-07-21T19:34:57.475Z,99.90
2018-07-21T19:37:31.132Z,99.90
2018-07-21T19:39:59.277Z,99.90
2018-07-21T19:42:27.454Z,99.90
2018-07-21T19:44:55.546Z,99.90
2018-07-21T19:47:23.806Z,99.90
2018-07-21T19:49:51.917Z,99.90
2018-07-21T19:52:20.098Z,99.90
2018-07-21T19:54:48.274Z,99.90
2018-07-21T19:57:16.458Z,99.90
2018-07-21T19:59:44.649Z,99.90
2018-07-21T20:02:12.838Z,99.90
2018-07-21T20:04:41.034Z,99.90
2018-07-21T20:07:09.249Z,99.90
2018-07-21T20:09:37.417Z,99.90
2018-07-21T20:12:05.595Z,99.90
2018-07-21T20:14:33.786Z,99.90
2018-07-21T20:17:01.957Z,99.90
2018-07-21T20:19:30.125Z,99.90
2018-07-21T20:24:26.198Z,99.90
2018-07-21T20:26:54.277Z,99.90
2018-07-21T20:29:22.374Z,99.90
2018-07-21T20:31:50.557Z,99.90
2018-07-21T20:34:18.629Z,99.90
2018-07-21T20:39:14.719Z,99.90
2018-07-21T20:41:42.914Z,99.90
2018-07-21T20:44:11.100Z,99.90
2018-07-21T20:46:39.274Z,99.90
2018-07-21T20:49:07.449Z,99.90
2018-07-21T20:51:35.535Z,99.90
2018-07-21T20:54:03.647Z,99.90
2018-07-21T20:56:31.817Z,99.90
2018-07-21T20:59:00.023Z,99.90
2018-07-21T21:01:28.238Z,99.90
2018-07-21T21:03:56.370Z,99.90
2018-07-21T21:06:24.542Z,99.90
2018-07-21T21:08:52.647Z,99.90
2018-07-21T21:11:20.749Z,99.90
2018-07-21T21:13:48.918Z,99.90
2018-07-21T21:16:17.340Z,99.90
2018-07-21T21:18:45.490Z,99.90
2018-07-21T21:21:13.686Z,99.90
2018-07-21T21:23:41.757Z,99.90
2018-07-21T21:26:09.986Z,99.90
2018-07-21T21:28:38.143Z,99.90
2018-07-21T21:31:06.380Z,99.90
2018-07-21T21:33:34.505Z,99.90
2018-07-21T21:38:31.606Z,99.90
2018-07-21T21:40:59.789Z,99.90
2018-07-21T21:43:27.969Z,99.90
2018-07-21T21:45:56.058Z,99.90
2018-07-21T21:48:24.311Z,99.90
2018-07-21T21:50:52.872Z,99.90
2018-07-21T21:53:21.026Z,99.90
2018-07-21T21:55:49.122Z,99.90
2018-07-21T21:58:17.297Z,99.90
2018-07-21T22:03:28.241Z,99.90
2018-07-21T22:05:56.647Z,99.90
2018-07-21T22:08:24.786Z,99.90
2018-07-21T22:10:52.881Z,99.90
2018-07-21T22:13:21.067Z,99.90
2018-07-21T22:15:49.150Z,99.90
2018-07-21T22:18:17.469Z,99.90
2018-07-21T22:20:45.641Z,99.90
2018-07-21T22:23:13.838Z,99.90
2018-07-21T22:25:42.010Z,99.90
2018-07-21T22:28:10.214Z,99.90
2018-07-21T22:30:38.393Z,99.90
2018-07-21T22:33:06.570Z,99.90
2018-07-21T22:35:34.762Z,99.90
2018-07-21T22:38:03.369Z,99.90
2018-07-21T22:40:31.549Z,99.90
2018-07-21T22:42:59.970Z,99.90
2018-07-21T22:45:28.451Z,99.90
2018-07-21T22:47:56.643Z,99.90
2018-07-21T22:50:25.235Z,99.90
2018-07-21T22:52:53.405Z,99.90
2018-07-21T22:55:21.590Z,99.90
2018-07-21T22:57:49.782Z,99.90
2018-07-21T23:00:17.958Z,99.90
2018-07-21T23:02:46.149Z,99.90
2018-07-21T23:05:14.333Z,99.90
2018-07-21T23:07:42.522Z,99.90
2018-07-21T23:10:10.717Z,99.90
2018-07-21T23:12:38.902Z,99.90
2018-07-21T23:15:08.017Z,99.90
2018-07-21T23:17:36.314Z,99.90
2018-07-21T23:20:05.826Z,99.90
2018-07-21T23:22:33.983Z,99.90
2018-07-21T23:25:02.079Z,99.90
2018-07-21T23:27:30.154Z,99.90
2018-07-21T23:29:58.249Z,99.90
2018-07-21T23:32:26.428Z,99.90
2018-07-21T23:34:54.485Z,99.90
2018-07-21T23:39:50.579Z,99.90
2018-07-21T23:42:18.766Z,99.90
2018-07-21T23:44:46.949Z,99.90
2018-07-21T23:47:15.032Z,99.90
2018-07-21T23:49:43.113Z,99.90
2018-07-21T23:52:11.198Z,99.90
2018-07-21T23:54:39.290Z,99.90
2018-07-21T23:57:07.609Z,99.90
2018-07-21T23:59:35.754Z,99.90
